createdAt,value
2023-05-19T00:02:13.117Z,102812.95
2023-05-19T00:06:15.278Z,102812.35
2023-05-19T00:10:10.643Z,102811.17
2023-05-19T00:13:22.014Z,102807.27
2023-05-19T00:16:58.675Z,102812.64
2023-05-19T00:20:37.805Z,102815.14
2023-05-19T00:24:13.801Z,102820.20
2023-05-19T00:27:51.207Z,102816.88
2023-05-19T00:31:29.322Z,102819.92
2023-05-19T00:35:07.060Z,102818.71
2023-05-19T00:38:44.455Z,102819.42
2023-05-19T00:42:21.956Z,102823.05
2023-05-19T00:46:00.618Z,102821.70
2023-05-19T00:49:37.162Z,102825.98
2023-05-19T00:53:18.335Z,102823.64
2023-05-19T00:56:54.319Z,102824.44
2023-05-19T01:00:31.060Z,102823.45
2023-05-19T01:04:10.807Z,102821.79
2023-05-19T01:07:47.316Z,102821.69
2023-05-19T01:11:23.222Z,102821.35
2023-05-19T01:15:02.184Z,102823.51
2023-05-19T01:19:01.989Z,102824.41
2023-05-19T01:22:32.301Z,102822.23
2023-05-19T01:26:11.291Z,102822.98
2023-05-19T01:29:48.905Z,102820.30
2023-05-19T01:33:16.443Z,102823.30
2023-05-19T01:36:50.027Z,102822.98
2023-05-19T01:40:26.925Z,102821.80
2023-05-19T01:44:02.719Z,102821.23
2023-05-19T01:47:44.745Z,102821.93
2023-05-19T01:51:18.279Z,102825.52
2023-05-19T01:54:56.049Z,102826.23
2023-05-19T01:58:46.803Z,102830.27
2023-05-19T02:02:47.361Z,102824.36
2023-05-19T02:06:17.990Z,102823.34
2023-05-19T02:09:55.546Z,102818.55
2023-05-19T02:13:08.548Z,102821.46
2023-05-19T02:16:46.419Z,102822.02
2023-05-19T02:20:19.361Z,102818.38
2023-05-19T02:23:57.258Z,102823.13
2023-05-19T02:27:39.287Z,102822.47
2023-05-19T02:31:12.558Z,102818.55
2023-05-19T02:34:50.206Z,102818.40
2023-05-19T02:38:27.620Z,102816.36
2023-05-19T02:42:05.613Z,102811.70
2023-05-19T02:45:43.066Z,102808.23
2023-05-19T02:49:20.989Z,102808.02
2023-05-19T02:52:58.371Z,102810.41
2023-05-19T02:56:36.043Z,102809.70
2023-05-19T03:00:14.419Z,102807.02
2023-05-19T03:03:51.558Z,102808.55
2023-05-19T03:07:29.797Z,102814.66
2023-05-19T03:11:06.894Z,102814.04
2023-05-19T03:14:44.354Z,102813.61
2023-05-19T03:18:24.654Z,102817.66
2023-05-19T03:22:00.672Z,102813.31
2023-05-19T03:25:37.441Z,102812.35
2023-05-19T03:29:14.937Z,102811.70
2023-05-19T03:32:53.340Z,102808.58
2023-05-19T03:36:33.391Z,102807.80
2023-05-19T03:40:09.003Z,102811.39
2023-05-19T03:43:45.772Z,102816.10
2023-05-19T03:47:23.428Z,102817.79
2023-05-19T03:51:01.610Z,102817.83
2023-05-19T03:54:39.693Z,102820.06
2023-05-19T03:58:16.653Z,102816.75
2023-05-19T04:01:54.845Z,102815.80
2023-05-19T04:05:32.264Z,102808.95
2023-05-19T04:09:14.284Z,102805.39
2023-05-19T04:12:47.931Z,102805.06
2023-05-19T04:16:25.584Z,102800.17
2023-05-19T04:20:02.785Z,102799.54
2023-05-19T04:23:40.448Z,102805.41
2023-05-19T04:27:19.082Z,102805.95
2023-05-19T04:30:58.849Z,102811.40
2023-05-19T04:34:40.652Z,102814.73
2023-05-19T04:38:12.259Z,102824.36
2023-05-19T04:41:48.829Z,102829.77
2023-05-19T04:45:26.876Z,102827.75
2023-05-19T04:49:04.020Z,102833.31
2023-05-19T04:52:42.637Z,102830.95
2023-05-19T04:56:19.742Z,102831.59
2023-05-19T05:00:00.557Z,102831.20
2023-05-19T05:07:12.313Z,102835.45
2023-05-19T05:10:52.753Z,102834.99
2023-05-19T05:14:28.051Z,102833.02
2023-05-19T05:18:05.935Z,102834.90
2023-05-19T05:21:43.415Z,102836.94
2023-05-19T05:25:21.276Z,102835.08
2023-05-19T05:28:58.314Z,102839.66
2023-05-19T05:32:36.348Z,102837.80
2023-05-19T05:36:34.444Z,102840.77
2023-05-19T05:39:51.604Z,102839.11
2023-05-19T05:43:30.060Z,102841.79
2023-05-19T05:47:07.186Z,102842.01
2023-05-19T05:50:46.026Z,102840.58
2023-05-19T05:54:25.619Z,102840.19
2023-05-19T05:58:02.151Z,102843.40
2023-05-19T06:01:37.530Z,102845.17
2023-05-19T06:05:15.547Z,102844.09
2023-05-19T06:08:52.956Z,102850.86
2023-05-19T06:12:31.270Z,102846.16
2023-05-19T06:16:08.220Z,102848.23
2023-05-19T06:19:46.246Z,102847.02
2023-05-19T06:23:26.976Z,102847.67
2023-05-19T06:27:01.409Z,102853.58
2023-05-19T06:30:38.636Z,102851.66
2023-05-19T06:34:17.837Z,102854.38
2023-05-19T06:37:55.924Z,102854.20
2023-05-19T06:41:31.981Z,102854.70
2023-05-19T06:45:10.033Z,102855.94
2023-05-19T06:48:47.513Z,102850.72
2023-05-19T06:52:25.099Z,102857.41
2023-05-19T06:56:02.568Z,102853.52
2023-05-19T06:59:43.725Z,102855.80
2023-05-19T07:03:18.123Z,102857.67
2023-05-19T07:06:55.785Z,102851.16
2023-05-19T07:10:33.714Z,102854.64
2023-05-19T07:14:11.064Z,102853.17
2023-05-19T07:17:48.535Z,102849.11
2023-05-19T07:21:26.269Z,102854.64
2023-05-19T07:25:04.487Z,102859.30
2023-05-19T07:28:43.503Z,102862.14
2023-05-19T07:32:19.286Z,102865.09
2023-05-19T07:35:57.152Z,102865.59
2023-05-19T07:39:36.241Z,102860.18
2023-05-19T07:43:14.442Z,102859.39
2023-05-19T07:46:49.760Z,102865.47
2023-05-19T07:50:27.788Z,102861.58
2023-05-19T07:54:05.093Z,102860.19
2023-05-19T07:57:43.152Z,102860.73
2023-05-19T08:01:20.581Z,102860.48
2023-05-19T08:04:58.650Z,102863.98
2023-05-19T08:08:36.171Z,102866.10
2023-05-19T08:12:14.402Z,102866.41
2023-05-19T08:15:51.436Z,102867.99
2023-05-19T08:19:29.482Z,102869.01
2023-05-19T08:23:06.820Z,102868.63
2023-05-19T08:26:44.615Z,102867.99
2023-05-19T08:30:22.080Z,102864.75
2023-05-19T08:34:00.037Z,102865.15
2023-05-19T08:37:38.682Z,102864.66
2023-05-19T08:41:16.939Z,102863.09
2023-05-19T08:44:52.704Z,102857.70
2023-05-19T08:48:33.940Z,102854.73
2023-05-19T08:52:25.034Z,102855.31
2023-05-19T08:56:10.654Z,102856.09
2023-05-19T08:59:23.593Z,102855.66
2023-05-19T09:03:17.429Z,102853.59
2023-05-19T09:06:41.179Z,102856.08
2023-05-19T09:10:16.812Z,102849.80
2023-05-19T09:13:54.411Z,102854.42
2023-05-19T09:17:34.107Z,102851.71
2023-05-19T09:21:11.325Z,102849.56
2023-05-19T09:24:47.825Z,102842.83
2023-05-19T09:28:26.804Z,102847.65
2023-05-19T09:32:05.400Z,102847.88
2023-05-19T09:35:40.354Z,102847.67
2023-05-19T09:39:19.964Z,102841.24
2023-05-19T09:42:55.636Z,102843.58
2023-05-19T09:46:36.125Z,102840.27
2023-05-19T09:50:12.560Z,102842.54
2023-05-19T09:53:48.794Z,102841.84
2023-05-19T09:57:29.461Z,102848.16
2023-05-19T10:01:05.148Z,102847.56
2023-05-19T10:04:44.201Z,102841.67
2023-05-19T10:08:19.930Z,102841.62
2023-05-19T10:11:58.671Z,102838.77
2023-05-19T10:15:46.709Z,102835.86
2023-05-19T10:19:14.295Z,102829.39
2023-05-19T10:22:50.331Z,102829.88
2023-05-19T10:26:28.752Z,102831.77
2023-05-19T10:30:15.657Z,102834.65
2023-05-19T10:34:04.451Z,102840.39
2023-05-19T10:37:41.849Z,102836.09
2023-05-19T10:41:12.458Z,102839.37
2023-05-19T10:45:04.348Z,102837.31
2023-05-19T10:48:17.390Z,102829.14
2023-05-19T10:51:57.689Z,102831.23
2023-05-19T10:55:53.554Z,102830.91
2023-05-19T10:59:06.987Z,102826.20
2023-05-19T11:03:13.886Z,102823.82
2023-05-19T11:06:30.233Z,102820.17
2023-05-19T11:10:00.195Z,102822.75
2023-05-19T11:13:37.683Z,102823.82
2023-05-19T11:17:16.650Z,102824.57
2023-05-19T11:21:01.202Z,102824.40
2023-05-19T11:24:35.261Z,102819.41
2023-05-19T11:28:08.641Z,102820.61
2023-05-19T11:31:46.521Z,102820.94
2023-05-19T11:35:23.497Z,102823.93
2023-05-19T11:39:02.630Z,102828.00
2023-05-19T11:42:39.436Z,102827.85
2023-05-19T11:46:16.950Z,102829.46
2023-05-19T11:49:56.792Z,102827.30
2023-05-19T11:53:36.183Z,102824.94
2023-05-19T11:57:11.055Z,102822.71
2023-05-19T12:00:48.004Z,102825.65
2023-05-19T12:04:25.525Z,102828.65
2023-05-19T12:08:03.548Z,102833.76
2023-05-19T12:11:40.944Z,102840.05
2023-05-19T12:15:25.016Z,102839.84
2023-05-19T12:19:15.142Z,102842.30
2023-05-19T12:22:34.984Z,102844.68
2023-05-19T12:26:12.001Z,102848.94
2023-05-19T12:29:53.909Z,102845.33
2023-05-19T12:33:26.812Z,102841.93
2023-05-19T12:37:05.094Z,102842.69
2023-05-19T12:40:45.598Z,102843.42
2023-05-19T12:44:21.336Z,102843.30
2023-05-19T12:47:57.821Z,102844.02
2023-05-19T12:51:34.889Z,102845.77
2023-05-19T12:55:14.486Z,102845.19
2023-05-19T12:58:54.823Z,102847.92
2023-05-19T13:02:28.388Z,102838.66
2023-05-19T13:06:05.914Z,102834.88
2023-05-19T13:09:43.126Z,102834.70
2023-05-19T13:13:22.276Z,102837.24
2023-05-19T13:16:58.886Z,102831.46
2023-05-19T13:20:40.988Z,102826.55
2023-05-19T13:24:14.292Z,102822.02
2023-05-19T13:27:51.685Z,102819.34
2023-05-19T13:31:29.740Z,102819.27
2023-05-19T13:35:07.789Z,102821.46
2023-05-19T13:38:44.755Z,102825.25
2023-05-19T13:42:22.411Z,102827.24
2023-05-19T13:46:00.139Z,102818.61
2023-05-19T13:49:37.818Z,102818.79
2023-05-19T13:53:15.283Z,102816.87
2023-05-19T13:56:53.103Z,102817.72
2023-05-19T14:00:32.526Z,102815.90
2023-05-19T14:04:08.976Z,102820.99
2023-05-19T14:07:47.069Z,102825.73
2023-05-19T14:11:23.810Z,102833.11
2023-05-19T14:15:02.200Z,102829.96
2023-05-19T14:18:39.098Z,102824.66
2023-05-19T14:22:17.453Z,102819.85
2023-05-19T14:25:54.554Z,102815.54
2023-05-19T14:29:32.292Z,102817.80
2023-05-19T14:33:09.994Z,102821.85
2023-05-19T14:36:48.913Z,102821.65
2023-05-19T14:40:25.290Z,102816.69
2023-05-19T14:44:02.865Z,102815.06
2023-05-19T14:47:40.844Z,102811.52
2023-05-19T14:51:18.176Z,102811.12
2023-05-19T14:54:57.188Z,102809.84
2023-05-19T14:58:33.744Z,102809.67
2023-05-19T15:02:12.416Z,102810.38
2023-05-19T15:05:49.794Z,102812.59
2023-05-19T15:09:26.744Z,102809.48
2023-05-19T15:13:05.098Z,102811.81
2023-05-19T15:16:41.820Z,102808.39
2023-05-19T15:20:20.198Z,102807.42
2023-05-19T15:23:57.303Z,102810.48
2023-05-19T15:27:36.749Z,102810.75
2023-05-19T15:31:12.546Z,102806.29
2023-05-19T15:34:50.190Z,102809.73
2023-05-19T15:40:55.314Z,102810.45
2023-05-19T15:42:05.500Z,102809.89
2023-05-19T15:45:43.616Z,102810.14
2023-05-19T15:49:20.754Z,102809.38
2023-05-19T15:52:58.343Z,102816.67
2023-05-19T15:56:36.493Z,102811.27
2023-05-19T16:00:14.987Z,102810.23
2023-05-19T16:03:51.924Z,102806.84
2023-05-19T16:07:29.802Z,102803.29
2023-05-19T16:11:07.281Z,102801.06
2023-05-19T16:14:44.631Z,102801.96
2023-05-19T16:18:22.914Z,102800.45
2023-05-19T16:22:00.137Z,102799.30
2023-05-19T16:25:37.531Z,102800.10
2023-05-19T16:29:15.259Z,102796.42
2023-05-19T16:32:56.404Z,102797.98
2023-05-19T16:36:31.961Z,102797.45
2023-05-19T16:40:10.228Z,102794.81
2023-05-19T16:43:46.336Z,102794.28
2023-05-19T16:47:23.767Z,102795.69
2023-05-19T16:51:01.600Z,102797.31
2023-05-19T16:54:38.885Z,102800.48
2023-05-19T16:58:16.986Z,102799.88
2023-05-19T17:01:54.907Z,102798.67
2023-05-19T17:05:34.077Z,102799.20
2023-05-19T17:09:09.579Z,102801.21
2023-05-19T17:12:47.221Z,102799.02
2023-05-19T17:16:24.855Z,102799.05
2023-05-19T17:20:03.219Z,102802.58
2023-05-19T17:23:40.492Z,102803.96
2023-05-19T17:27:18.224Z,102801.20
2023-05-19T17:30:55.951Z,102799.98
2023-05-19T17:34:33.266Z,102803.48
2023-05-19T17:38:11.376Z,102805.73
2023-05-19T17:41:48.854Z,102802.04
2023-05-19T17:45:26.886Z,102800.33
2023-05-19T17:49:04.431Z,102800.46
2023-05-19T17:52:42.066Z,102798.52
2023-05-19T17:56:22.540Z,102792.32
2023-05-19T17:59:57.298Z,102793.20
2023-05-19T18:03:36.193Z,102799.23
2023-05-19T18:07:14.424Z,102803.84
2023-05-19T18:10:52.875Z,102799.69
2023-05-19T18:14:28.006Z,102794.27
2023-05-19T18:18:07.921Z,102793.27
2023-05-19T18:21:42.803Z,102790.65
2023-05-19T18:25:21.425Z,102784.82
2023-05-19T18:29:02.623Z,102783.64
2023-05-19T18:32:55.216Z,102788.64
2023-05-19T18:36:15.507Z,102789.52
2023-05-19T18:39:51.594Z,102795.50
2023-05-19T18:43:30.645Z,102795.08
2023-05-19T18:47:06.824Z,102799.89
2023-05-19T18:50:45.055Z,102803.09
2023-05-19T18:54:22.949Z,102805.91
2023-05-19T18:58:00.246Z,102805.39
2023-05-19T19:01:37.761Z,102802.70
2023-05-19T19:05:15.829Z,102806.29
2023-05-19T19:08:52.950Z,102805.42
2023-05-19T19:12:31.255Z,102814.48
2023-05-19T19:16:08.397Z,102814.23
2023-05-19T19:19:46.430Z,102813.83
2023-05-19T19:23:24.413Z,102808.41
2023-05-19T19:27:01.860Z,102808.05
2023-05-19T19:30:39.256Z,102800.42
2023-05-19T19:34:19.862Z,102793.70
2023-05-19T19:37:54.574Z,102790.11
2023-05-19T19:41:33.667Z,102795.39
2023-05-19T19:45:14.038Z,102797.09
2023-05-19T19:48:47.470Z,102793.41
2023-05-19T19:52:26.034Z,102801.15
2023-05-19T19:56:04.519Z,102805.13
2023-05-19T19:59:40.226Z,102806.10
2023-05-19T20:03:18.191Z,102800.77
2023-05-19T20:06:56.008Z,102801.93
2023-05-19T20:10:33.961Z,102801.90
2023-05-19T20:14:11.446Z,102804.40
2023-05-19T20:17:49.171Z,102797.76
2023-05-19T20:21:26.239Z,102802.90
2023-05-19T20:25:05.048Z,102793.96
2023-05-19T20:28:42.061Z,102788.41
2023-05-19T20:32:19.811Z,102788.38
2023-05-19T20:35:57.566Z,102792.67
2023-05-19T20:39:34.996Z,102795.50
2023-05-19T20:43:12.876Z,102794.27
2023-05-19T20:46:50.716Z,102789.05
2023-05-19T20:50:28.434Z,102790.27
2023-05-19T20:54:07.579Z,102791.20
2023-05-19T20:57:44.862Z,102791.04
2023-05-19T21:01:21.024Z,102790.18
2023-05-19T21:04:58.867Z,102794.23
2023-05-19T21:08:36.305Z,102797.36
2023-05-19T21:12:16.415Z,102799.17
2023-05-19T21:15:51.809Z,102802.31
2023-05-19T21:19:29.435Z,102811.27
2023-05-19T21:23:06.932Z,102819.86
2023-05-19T21:26:44.620Z,102817.94
2023-05-19T21:30:23.906Z,102818.24
2023-05-19T21:34:00.257Z,102822.27
2023-05-19T21:37:38.136Z,102823.83
2023-05-19T21:41:15.369Z,102825.83
2023-05-19T21:44:52.896Z,102832.86
2023-05-19T21:48:31.310Z,102831.30
2023-05-19T21:52:08.721Z,102830.80
2023-05-19T21:55:46.123Z,102831.73
2023-05-19T21:59:24.937Z,102826.84
2023-05-19T22:03:01.217Z,102825.50
2023-05-19T22:06:39.346Z,102822.41
2023-05-19T22:10:16.626Z,102820.42
2023-05-19T22:13:57.125Z,102822.73
2023-05-19T22:17:32.381Z,102820.54
2023-05-19T22:21:10.537Z,102818.03
2023-05-19T22:24:47.048Z,102815.84
2023-05-19T22:28:25.217Z,102815.86
2023-05-19T22:32:02.935Z,102822.04
2023-05-19T22:35:40.383Z,102820.39
2023-05-19T22:39:18.002Z,102818.16
2023-05-19T22:42:55.781Z,102820.77
2023-05-19T22:46:34.491Z,102821.79
2023-05-19T22:50:12.534Z,102809.38
2023-05-19T22:53:49.318Z,102815.55
2023-05-19T22:57:26.648Z,102814.71
2023-05-19T23:01:04.448Z,102815.11
2023-05-19T23:04:42.980Z,102819.54
2023-05-19T23:08:19.433Z,102815.91
2023-05-19T23:11:57.186Z,102810.55
2023-05-19T23:15:34.984Z,102807.58
2023-05-19T23:19:12.429Z,102803.36
2023-05-19T23:22:50.106Z,102804.20
2023-05-19T23:26:27.683Z,102808.39
2023-05-19T23:30:06.694Z,102803.27
2023-05-19T23:33:43.427Z,102811.49
2023-05-19T23:37:20.593Z,102812.30
2023-05-19T23:40:58.434Z,102814.58
2023-05-19T23:44:35.933Z,102821.14
2023-05-19T23:48:13.852Z,102824.66
2023-05-19T23:51:51.392Z,102823.34
2023-05-19T23:55:29.235Z,102823.83
2023-05-19T23:59:06.763Z,102819.23
